Time;durP1;ratioP1;P1;durP2;ratioP2;P2;SDS_P1;SDS_P2;PMS_P1;PMS_P2;Temp;Humidity;BMP_temperature;BMP_pressure;BME280_temperature;BME280_humidity;BME280_pressure;Samples;Min_cycle;Max_cycle;Signal;HPM_P1;HPM_P2
2022/08/20 00:01:12;;;;;;;20.67;8.65;;;;;;;18.20;100.00;101589.13;5203735;28;20467;-74
2022/08/20 00:03:43;;;;;;;19.52;9.48;;;;;;;18.13;100.00;101583.66;5203949;28;20108;-73
2022/08/20 00:06:18;;;;;;;19.10;10.05;;;;;;;18.04;100.00;101582.13;5203022;28;20013;-73
2022/08/20 00:08:49;;;;;;;20.05;9.60;;;;;;;17.94;100.00;101587.91;5203541;28;20033;-74
2022/08/20 00:11:25;;;;;;;22.80;10.18;;;;;;;17.86;100.00;101582.59;5203877;28;20475;-74
2022/08/20 00:13:58;;;;;;;23.58;11.10;;;;;;;17.78;100.00;101589.03;5203885;28;20455;-74
2022/08/20 00:16:33;;;;;;;20.63;9.68;;;;;;;17.73;100.00;101596.91;5202885;28;20112;-74
2022/08/20 00:19:06;;;;;;;16.98;8.70;;;;;;;17.70;100.00;101599.97;5203592;28;20022;-74
2022/08/20 00:21:37;;;;;;;20.90;10.05;;;;;;;17.67;100.00;101597.66;5203532;28;20076;-74
2022/08/20 00:24:08;;;;;;;26.05;9.90;;;;;;;17.61;100.00;101591.13;5203073;28;20602;-74
2022/08/20 00:26:39;;;;;;;25.88;10.95;;;;;;;17.57;100.00;101603.41;5203707;28;20101;-74
2022/08/20 00:29:09;;;;;;;26.25;11.35;;;;;;;17.53;100.00;101610.25;5202572;28;20622;-75
2022/08/20 00:31:40;;;;;;;27.23;11.05;;;;;;;17.53;100.00;101612.13;5203412;28;20036;-75
2022/08/20 00:34:10;;;;;;;30.02;12.32;;;;;;;17.53;100.00;101606.72;5202626;28;20395;-75
2022/08/20 00:36:41;;;;;;;25.25;11.18;;;;;;;17.54;100.00;101611.09;5203522;28;20030;-75
2022/08/20 00:39:12;;;;;;;26.85;11.40;;;;;;;17.54;100.00;101614.66;5202807;28;20032;-74
2022/08/20 00:41:42;;;;;;;27.90;12.45;;;;;;;17.54;100.00;101613.81;5203495;28;20096;-75
2022/08/20 00:44:17;;;;;;;22.85;11.48;;;;;;;17.52;100.00;101607.72;5202183;28;20025;-75
2022/08/20 00:46:49;;;;;;;27.00;11.93;;;;;;;17.45;100.00;101609.53;5203360;28;20018;-75
2022/08/20 00:49:24;;;;;;;23.75;12.57;;;;;;;17.42;100.00;101613.50;5202932;28;20063;-75
2022/08/20 00:51:56;;;;;;;;;;;;;;;17.38;100.00;101608.66;5203611;28;20083;-75
2022/08/20 00:54:30;;;;;;;24.90;12.13;;;;;;;17.33;100.00;101610.06;5201232;28;19913;-75
2022/08/20 00:57:07;;;;;;;30.33;13.50;;;;;;;17.32;100.00;101611.09;5202695;28;20168;-75
2022/08/20 00:59:40;;;;;;;25.58;13.10;;;;;;;17.29;100.00;101602.50;5203035;28;20406;-74
2022/08/20 01:02:14;;;;;;;30.33;13.32;;;;;;;17.22;100.00;101602.44;5201928;28;20036;-74
2022/08/20 01:07:36;;;;;;;31.77;14.40;;;;;;;17.15;100.00;101604.22;5191443;28;20044;-74
2022/08/20 01:10:13;;;;;;;32.95;14.25;;;;;;;17.15;100.00;101606.09;5202985;28;20390;-74
2022/08/20 01:12:46;;;;;;;33.95;14.98;;;;;;;17.14;100.00;101604.41;5203480;28;20364;-74
2022/08/20 01:15:22;;;;;;;29.80;14.35;;;;;;;17.06;100.00;101598.06;5202309;28;20021;-75
2022/08/20 01:17:57;;;;;;;;;;;;;;;17.01;100.00;101602.38;5190010;28;20429;-75
2022/08/20 01:20:32;;;;;;;37.15;15.07;;;;;;;16.96;100.00;101608.34;5195012;28;19992;-74
2022/08/20 01:26:28;;;;;;;30.92;14.57;;;;;;;16.89;100.00;101609.31;5202837;28;20100;-74
2022/08/20 01:29:06;;;;;;;36.17;14.88;;;;;;;16.86;100.00;101609.69;5198490;28;20040;-74
2022/08/20 01:31:39;;;;;;;41.53;16.23;;;;;;;16.82;100.00;101612.78;5202945;28;20487;-73
2022/08/20 01:34:13;;;;;;;31.90;14.35;;;;;;;16.76;100.00;101610.81;5201939;28;20108;-74
2022/08/20 01:36:48;;;;;;;36.03;14.70;;;;;;;16.67;100.00;101611.09;5203031;28;20399;-73
2022/08/20 01:39:23;;;;;;;31.10;13.32;;;;;;;16.60;100.00;101613.69;5202525;28;20034;-73
2022/08/20 01:42:12;;;;;;;31.27;13.33;;;;;;;16.53;100.00;101615.47;5202853;28;20271;-73
2022/08/20 01:44:44;;;;;;;27.25;14.25;;;;;;;16.46;100.00;101611.81;5189374;28;20311;-74
2022/08/20 01:47:25;;;;;;;29.75;15.38;;;;;;;16.38;100.00;101617.34;5202950;28;20018;-74
2022/08/20 01:50:00;;;;;;;;;;;;;;;16.36;100.00;101608.56;5204130;28;20586;-74
2022/08/20 01:52:56;;;;;;;30.77;13.90;;;;;;;16.29;100.00;101608.47;5206545;28;19956;-73
2022/08/20 01:55:27;;;;;;;37.47;13.95;;;;;;;16.22;100.00;101602.94;5206121;28;20032;-73
2022/08/20 01:57:59;;;;;;;36.90;13.32;;;;;;;16.18;100.00;101617.03;5206602;28;20033;-74
2022/08/20 02:00:34;;;;;;;35.47;13.48;;;;;;;16.13;100.00;101609.47;5206525;28;20037;-76
2022/08/20 02:03:06;;;;;;;32.63;13.80;;;;;;;16.07;100.00;101610.22;5206761;28;20033;-75
2022/08/20 02:05:37;;;;;;;29.23;12.65;;;;;;;16.03;100.00;101603.47;5205749;28;20031;-75
2022/08/20 02:08:08;;;;;;;28.10;11.32;;;;;;;16.00;100.00;101609.25;5206834;28;20037;-75
2022/08/20 02:10:54;;;;;;;31.73;12.30;;;;;;;15.97;100.00;101605.06;5207063;28;20044;-75
2022/08/20 02:13:25;;;;;;;29.38;12.55;;;;;;;15.93;100.00;101617.25;5206180;28;20094;-76
2022/08/20 02:16:10;;;;;;;26.08;11.90;;;;;;;15.85;100.00;101611.91;5205701;28;20052;-75
2022/08/20 02:18:41;;;;;;;30.40;11.75;;;;;;;15.80;100.00;101625.16;5206597;28;20032;-76
2022/08/20 02:21:11;;;;;;;26.90;11.65;;;;;;;15.73;100.00;101613.38;5207017;28;20376;-75
2022/08/20 02:23:42;;;;;;;36.60;11.80;;;;;;;15.68;100.00;101618.50;5207078;28;20021;-75
2022/08/20 02:26:13;;;;;;;35.10;11.88;;;;;;;15.61;100.00;101618.31;5206939;28;20513;-75
2022/08/20 02:28:47;;;;;;;26.40;10.93;;;;;;;15.59;100.00;101614.97;5207832;28;20029;-75
2022/08/20 02:31:21;;;;;;;49.83;12.25;;;;;;;15.52;100.00;101617.56;5206572;28;20022;-76
2022/08/20 02:33:51;;;;;;;37.55;11.90;;;;;;;15.48;100.00;101613.53;5207928;28;20028;-75
2022/08/20 02:36:22;;;;;;;26.85;10.85;;;;;;;15.45;100.00;101610.34;5206157;28;20026;-76
2022/08/20 02:38:52;;;;;;;28.17;10.18;;;;;;;15.40;100.00;101618.16;5207951;28;20479;-74
2022/08/20 02:41:23;;;;;;;29.67;11.02;;;;;;;15.38;100.00;101615.63;5208299;28;20044;-76
2022/08/20 02:43:53;;;;;;;35.45;9.82;;;;;;;15.35;100.00;101618.69;5208864;28;20029;-76
2022/08/20 02:46:24;;;;;;;37.08;10.43;;;;;;;15.32;100.00;101620.91;5208269;28;20018;-75
2022/08/20 02:48:55;;;;;;;22.70;9.98;;;;;;;15.26;100.00;101623.31;5209412;28;20033;-74
2022/08/20 02:51:26;;;;;;;24.55;9.70;;;;;;;15.22;100.00;101624.69;5207776;28;20372;-74
2022/08/20 02:53:56;;;;;;;26.55;9.13;;;;;;;15.16;100.00;101627.25;5207708;28;20048;-74
2022/08/20 02:56:27;;;;;;;29.60;8.05;;;;;;;15.10;100.00;101623.38;5210717;28;20459;-74
2022/08/20 02:58:57;;;;;;;21.52;8.32;;;;;;;15.07;100.00;101620.22;5210464;28;20029;-74
2022/08/20 03:01:29;;;;;;;24.70;9.60;;;;;;;15.06;100.00;101624.78;5209491;28;20033;-75
2022/08/20 03:04:00;;;;;;;19.65;9.20;;;;;;;15.07;100.00;101623.75;5205937;28;20039;-73
2022/08/20 03:06:31;;;;;;;28.30;10.18;;;;;;;15.09;100.00;101621.72;5205710;28;20280;-73
2022/08/20 03:09:04;;;;;;;32.22;9.63;;;;;;;15.09;100.00;101621.72;5207731;28;20096;-76
2022/08/20 03:11:35;;;;;;;24.25;9.13;;;;;;;15.11;100.00;101618.81;5209516;28;20108;-76
2022/08/20 03:14:06;;;;;;;33.35;10.50;;;;;;;15.12;100.00;101615.97;5208926;28;20485;-75
2022/08/20 03:16:36;;;;;;;28.95;9.68;;;;;;;15.12;100.00;101617.81;5207278;28;20033;-73
2022/08/20 03:19:07;;;;;;;32.50;10.75;;;;;;;15.13;100.00;101623.03;5208716;28;20021;-74
2022/08/20 03:21:38;;;;;;;26.08;10.15;;;;;;;15.15;100.00;101614.75;5208455;28;20053;-73
2022/08/20 03:24:08;;;;;;;42.10;10.52;;;;;;;15.19;100.00;101621.50;5213218;28;20025;-75
2022/08/20 03:26:39;;;;;;;23.15;9.40;;;;;;;15.23;100.00;101622.81;5209546;28;20101;-73
2022/08/20 03:29:10;;;;;;;36.58;10.90;;;;;;;15.26;100.00;101611.63;5202610;28;20049;-73
2022/08/20 03:31:41;;;;;;;33.25;11.18;;;;;;;15.28;100.00;101613.16;5194163;28;20094;-73
2022/08/20 03:34:12;;;;;;;30.88;9.98;;;;;;;15.35;100.00;101625.94;5206172;28;20029;-73
2022/08/20 03:36:42;;;;;;;23.55;9.85;;;;;;;15.40;100.00;101618.97;5205696;28;20030;-73
2022/08/20 03:39:12;;;;;;;40.40;12.80;;;;;;;15.45;100.00;101631.97;5204476;28;20029;-73
2022/08/20 03:41:43;;;;;;;32.00;9.77;;;;;;;15.46;100.00;101628.25;5204536;28;20475;-73
2022/08/20 03:44:14;;;;;;;28.95;10.40;;;;;;;15.50;100.00;101637.69;5203876;28;20099;-73
2022/08/20 03:46:44;;;;;;;43.05;11.05;;;;;;;15.54;100.00;101631.72;5204635;28;20079;-72
2022/08/20 03:49:15;;;;;;;31.45;11.27;;;;;;;15.58;100.00;101640.34;5204215;28;20454;-73
2022/08/20 03:51:46;;;;;;;33.35;10.15;;;;;;;15.59;100.00;101646.59;5203999;28;20025;-73
2022/08/20 03:54:16;;;;;;;32.75;10.20;;;;;;;15.59;100.00;101650.13;5203189;28;20045;-73
2022/08/20 03:56:47;;;;;;;36.22;11.30;;;;;;;15.61;100.00;101637.25;5204140;28;20036;-72
2022/08/20 03:59:17;;;;;;;25.80;10.00;;;;;;;15.60;100.00;101643.69;5204014;28;20029;-73
2022/08/20 04:01:48;;;;;;;31.30;10.02;;;;;;;15.62;100.00;101636.25;5204337;28;20479;-73
2022/08/20 04:04:19;;;;;;;31.75;10.38;;;;;;;15.65;100.00;101644.03;5203411;28;20100;-72
2022/08/20 04:06:50;;;;;;;32.10;10.32;;;;;;;15.68;100.00;101648.25;5204156;28;20021;-72
2022/08/20 04:09:20;;;;;;;29.73;10.15;;;;;;;15.68;100.00;101650.97;5204130;28;20029;-73
2022/08/20 04:11:52;;;;;;;33.75;9.50;;;;;;;15.69;100.00;101652.63;5202782;28;20029;-72
2022/08/20 04:14:22;;;;;;;33.50;10.10;;;;;;;15.68;100.00;101651.78;5202676;28;20052;-73
2022/08/20 04:16:53;;;;;;;23.15;9.20;;;;;;;15.67;100.00;101649.28;5203441;28;20029;-73
2022/08/20 04:19:24;;;;;;;34.40;9.50;;;;;;;15.65;100.00;101657.56;5203766;28;20033;-73
2022/08/20 04:21:54;;;;;;;35.03;9.45;;;;;;;15.65;100.00;101654.84;5203739;28;20387;-73
2022/08/20 04:24:26;;;;;;;35.60;10.20;;;;;;;15.67;100.00;101662.81;5202852;28;20090;-73
2022/08/20 04:26:57;;;;;;;31.58;9.07;;;;;;;15.64;100.00;101658.56;5204036;28;20434;-73
2022/08/20 04:29:29;;;;;;;29.63;9.60;;;;;;;15.61;100.00;101658.06;5185385;28;20479;-73
2022/08/20 04:32:01;;;;;;;49.58;10.20;;;;;;;15.62;100.00;101660.59;5203697;28;20022;-72
2022/08/20 04:34:32;;;;;;;38.97;9.45;;;;;;;15.60;100.00;101667.19;5203122;28;20025;-71
2022/08/20 04:37:04;;;;;;;23.33;8.68;;;;;;;15.59;100.00;101663.66;5201452;28;20029;-71
2022/08/20 04:39:34;;;;;;;35.42;10.40;;;;;;;15.60;100.00;101664.50;5202477;28;20018;-73
2022/08/20 04:42:05;;;;;;;32.25;9.45;;;;;;;15.63;100.00;101665.00;5202435;28;20488;-74
2022/08/20 04:44:35;;;;;;;26.25;9.23;;;;;;;15.65;100.00;101671.06;5201932;28;20051;-71
2022/08/20 04:47:06;;;;;;;27.65;10.05;;;;;;;15.70;100.00;101667.84;5202365;28;20025;-71
2022/08/20 04:49:37;;;;;;;34.00;9.35;;;;;;;15.68;100.00;101676.13;5202705;28;20025;-71
2022/08/20 04:52:09;;;;;;;30.23;9.63;;;;;;;15.69;100.00;101669.69;5201613;28;20422;-71
2022/08/20 04:54:40;;;;;;;29.77;8.75;;;;;;;15.67;100.00;101682.56;5201689;28;20036;-71
2022/08/20 04:57:10;;;;;;;35.28;8.82;;;;;;;15.66;100.00;101680.03;5202088;28;20025;-71
2022/08/20 04:59:40;;;;;;;28.00;9.60;;;;;;;15.69;100.00;101687.78;5202759;28;20151;-71
2022/08/20 05:02:11;;;;;;;23.88;9.45;;;;;;;15.69;100.00;101683.22;5180506;28;20129;-71
2022/08/20 05:04:41;;;;;;;36.15;9.32;;;;;;;15.69;100.00;101687.78;5192455;28;20021;-71
2022/08/20 05:07:14;;;;;;;28.65;9.48;;;;;;;15.67;100.00;101684.44;5188565;28;20026;-71
2022/08/20 05:09:45;;;;;;;32.55;8.68;;;;;;;15.65;100.00;101690.00;5202163;28;20475;-71
2022/08/20 05:12:16;;;;;;;35.08;8.88;;;;;;;15.67;100.00;101698.81;5201947;28;20104;-70
2022/08/20 05:14:47;;;;;;;30.15;8.93;;;;;;;15.68;100.00;101702.34;5200863;28;20025;-71
2022/08/20 05:17:17;;;;;;;40.25;9.90;;;;;;;15.68;100.00;101694.22;5201530;28;20037;-70
2022/08/20 05:19:51;;;;;;;33.65;10.43;;;;;;;15.69;100.00;101690.50;5201845;28;20022;-71
2022/08/20 05:22:21;;;;;;;35.83;9.55;;;;;;;15.72;100.00;101693.69;5201616;28;20056;-70
2022/08/20 05:24:52;;;;;;;32.60;10.48;;;;;;;15.73;100.00;101702.66;5200100;28;20053;-71
2022/08/20 05:27:25;;;;;;;25.85;8.90;;;;;;;15.74;100.00;101705.16;5198416;28;20104;-71
2022/08/20 05:30:13;;;;;;;28.50;9.90;;;;;;;15.73;100.00;101705.34;5200635;28;20037;-71
2022/08/20 05:32:47;;;;;;;30.13;9.75;;;;;;;15.76;100.00;101710.38;5199367;28;20025;-70
2022/08/20 05:35:18;;;;;;;40.33;9.00;;;;;;;15.78;100.00;101714.63;5158167;28;1091361;-71
2022/08/20 05:37:48;;;;;;;35.47;10.27;;;;;;;15.73;100.00;101711.59;5202781;28;20483;-71
2022/08/20 05:40:21;;;;;;;41.17;10.48;;;;;;;15.78;100.00;101717.31;5201898;28;20029;-70
2022/08/20 05:42:52;;;;;;;38.10;9.43;;;;;;;15.79;100.00;101715.47;5202436;28;20108;-70
2022/08/20 05:45:23;;;;;;;27.05;10.20;;;;;;;15.83;100.00;101718.66;5202224;28;20090;-70
2022/08/20 05:47:54;;;;;;;29.52;9.65;;;;;;;15.87;100.00;101728.94;5203100;28;20025;-70
2022/08/20 05:50:24;;;;;;;29.13;11.10;;;;;;;15.88;100.00;101727.91;5202126;28;20056;-70
2022/08/20 05:52:55;;;;;;;35.65;10.45;;;;;;;15.89;100.00;101726.03;5201379;28;20410;-70
2022/08/20 05:55:26;;;;;;;29.55;9.93;;;;;;;15.92;100.00;101731.13;5201713;28;20071;-70
2022/08/20 05:57:59;;;;;;;38.55;11.05;;;;;;;15.92;100.00;101731.13;5202565;28;20022;-71
2022/08/20 06:00:31;;;;;;;37.17;11.05;;;;;;;15.96;100.00;101735.94;5202174;28;20049;-70
2022/08/20 06:05:50;;;;;;;36.00;11.85;;;;;;;15.99;100.00;101729.34;5190275;28;20037;-71
2022/08/20 06:08:21;;;;;;;36.47;11.48;;;;;;;16.00;100.00;101725.63;5202061;28;20013;-71
2022/08/20 06:10:52;;;;;;;32.53;11.45;;;;;;;16.00;100.00;101733.75;5202437;28;20026;-70
2022/08/20 06:13:23;;;;;;;41.70;12.80;;;;;;;16.03;100.00;101730.69;5201126;28;20112;-70
2022/08/20 06:15:55;;;;;;;39.80;11.85;;;;;;;16.07;100.00;101736.59;5202238;28;20030;-70
2022/08/20 06:18:26;;;;;;;43.60;13.00;;;;;;;16.12;100.00;101726.91;5201920;28;20025;-70
2022/08/20 06:20:56;;;;;;;36.58;13.05;;;;;;;16.11;100.00;101733.31;5202709;28;20075;-70
2022/08/20 06:23:27;;;;;;;41.63;12.57;;;;;;;16.15;100.00;101737.34;5200342;28;20573;-70
2022/08/20 06:25:57;;;;;;;43.90;13.57;;;;;;;16.20;100.00;101734.09;5201861;28;20036;-70
2022/08/20 06:28:28;;;;;;;48.25;12.82;;;;;;;16.22;100.00;101734.78;5189605;28;20025;-70
2022/08/20 06:30:59;;;;;;;48.70;12.38;;;;;;;16.20;100.00;101729.53;5196379;28;20079;-71
2022/08/20 06:33:29;;;;;;;36.83;13.98;;;;;;;16.22;100.00;101730.19;5202387;28;20096;-70
2022/08/20 06:36:00;;;;;;;43.53;13.57;;;;;;;16.26;100.00;101728.78;5202260;28;20418;-71
2022/08/20 06:38:31;;;;;;;41.70;13.80;;;;;;;16.24;100.00;101730.00;5205109;28;20025;-70
2022/08/20 06:41:02;;;;;;;44.83;14.85;;;;;;;16.25;100.00;101726.25;5205705;28;20032;-71
2022/08/20 06:43:32;;;;;;;47.83;14.40;;;;;;;16.26;100.00;101726.06;5205727;28;20537;-70
2022/08/20 06:46:05;;;;;;;53.15;13.88;;;;;;;16.31;100.00;101729.09;5205238;28;20025;-70
2022/08/20 06:48:35;;;;;;;69.78;14.88;;;;;;;16.28;100.00;101728.63;5205470;28;20025;-70
2022/08/20 06:51:06;;;;;;;52.60;14.57;;;;;;;16.36;100.00;101735.81;5204059;28;20411;-71
2022/08/20 06:53:37;;;;;;;51.42;13.93;;;;;;;16.38;100.00;101740.03;5203954;28;20036;-70
2022/08/20 06:56:08;;;;;;;56.38;15.32;;;;;;;16.50;100.00;101738.56;5205054;28;20030;-71
2022/08/20 06:58:39;;;;;;;64.65;15.95;;;;;;;16.58;100.00;101743.06;5205226;28;20029;-70
2022/08/20 07:01:10;;;;;;;52.58;16.52;;;;;;;16.65;100.00;101740.47;5205401;28;20051;-70
2022/08/20 07:03:41;;;;;;;50.33;15.75;;;;;;;16.71;100.00;101745.13;5205022;28;20036;-70
2022/08/20 07:06:13;;;;;;;50.22;16.67;;;;;;;16.73;100.00;101741.25;5205084;28;20113;-70
2022/08/20 07:08:43;;;;;;;50.92;16.63;;;;;;;16.76;100.00;101740.03;5205232;28;20033;-70
2022/08/20 07:11:14;;;;;;;68.13;18.23;;;;;;;16.86;100.00;101751.44;5205230;28;20029;-70
2022/08/20 07:13:44;;;;;;;66.82;16.50;;;;;;;16.92;100.00;101756.16;5205174;28;20381;-70
2022/08/20 07:16:15;;;;;;;50.33;17.45;;;;;;;17.02;100.00;101750.44;5204970;28;20029;-70
2022/08/20 07:18:45;;;;;;;47.30;15.90;;;;;;;17.06;100.00;101759.88;5205021;28;20482;-70
2022/08/20 07:21:16;;;;;;;77.15;20.38;;;;;;;17.13;100.00;101760.81;5204680;28;20120;-70
2022/08/20 07:23:48;;;;;;;82.50;22.00;;;;;;;17.23;100.00;101758.66;5190473;28;20395;-70
2022/08/20 07:26:18;;;;;;;64.03;19.88;;;;;;;17.34;100.00;101758.19;5204418;28;20021;-70
2022/08/20 07:28:49;;;;;;;63.15;22.83;;;;;;;17.46;100.00;101754.97;5194728;28;20045;-70
2022/08/20 07:34:10;;;;;;;72.20;22.75;;;;;;;17.66;100.00;101766.91;5204019;28;20094;-70
2022/08/20 07:36:40;;;;;;;82.53;23.60;;;;;;;17.79;100.00;101764.41;5204941;28;20498;-70
2022/08/20 07:39:11;;;;;;;66.13;21.13;;;;;;;17.88;100.00;101767.00;5205070;28;20021;-70
2022/08/20 07:41:42;;;;;;;59.20;19.73;;;;;;;18.16;100.00;101767.91;5204716;28;20021;-70
2022/08/20 07:44:12;;;;;;;51.03;18.98;;;;;;;18.25;100.00;101769.47;5203897;28;20029;-70
2022/08/20 07:46:42;;;;;;;55.50;17.55;;;;;;;18.45;100.00;101772.38;5194089;28;20544;-70
2022/08/20 07:49:13;;;;;;;54.38;17.50;;;;;;;19.21;100.00;101768.94;5200787;28;20112;-70
2022/08/20 07:51:43;;;;;;;39.13;16.80;;;;;;;19.96;100.00;101764.47;5204419;28;20033;-70
2022/08/20 07:54:14;;;;;;;44.97;15.35;;;;;;;20.71;100.00;101771.47;5203438;28;20104;-70
2022/08/20 07:56:44;;;;;;;34.65;14.02;;;;;;;21.13;100.00;101772.84;5204637;28;20025;-70
2022/08/20 07:59:15;;;;;;;40.00;15.45;;;;;;;21.84;100.00;101760.22;5204211;28;20021;-71
2022/08/20 08:01:45;;;;;;;25.98;13.07;;;;;;;22.58;100.00;101762.22;5202970;28;20490;-70
2022/08/20 08:04:16;;;;;;;36.95;14.57;;;;;;;22.84;100.00;101765.78;5204015;28;20118;-71
2022/08/20 08:06:46;;;;;;;27.75;13.40;;;;;;;23.14;100.00;101769.50;5204293;28;20021;-71
2022/08/20 08:09:17;;;;;;;22.98;10.88;;;;;;;23.45;100.00;101770.44;5204007;28;20609;-71
2022/08/20 08:11:49;;;;;;;26.52;10.95;;;;;;;23.32;100.00;101768.66;5204248;28;20025;-71
2022/08/20 08:14:25;;;;;;;25.73;11.80;;;;;;;23.44;100.00;101771.47;5203703;28;20064;-71
2022/08/20 08:17:01;;;;;;;23.65;11.43;;;;;;;23.42;100.00;101774.44;5204084;28;20044;-71
2022/08/20 08:19:37;;;;;;;34.05;12.45;;;;;;;23.16;100.00;101775.59;5203545;28;20025;-71
2022/08/20 08:22:11;;;;;;;30.25;11.63;;;;;;;23.75;100.00;101767.75;5203770;28;20499;-71
2022/08/20 08:24:45;;;;;;;26.23;9.70;;;;;;;24.24;100.00;101773.97;5202974;28;20481;-71
2022/08/20 08:27:17;;;;;;;28.15;9.70;;;;;;;24.95;100.00;101775.75;5203636;28;20067;-71
2022/08/20 08:29:48;;;;;;;26.85;10.48;;;;;;;25.00;100.00;101778.63;5195256;28;20224;-71
2022/08/20 08:32:19;;;;;;;27.05;10.57;;;;;;;24.84;100.00;101771.09;5203449;28;20025;-71
2022/08/20 08:34:49;;;;;;;23.67;9.73;;;;;;;25.28;100.00;101771.56;5202898;28;20029;-72
2022/08/20 08:37:20;;;;;;;26.73;9.43;;;;;;;25.71;100.00;101775.75;5202824;28;20075;-71
2022/08/20 08:39:50;;;;;;;18.85;8.05;;;;;;;25.60;100.00;101782.09;5202321;28;20025;-71
2022/08/20 08:42:33;;;;;;;20.83;8.40;;;;;;;25.96;100.00;101778.19;5203356;28;20125;-71
2022/08/20 08:45:07;;;;;;;16.50;7.30;;;;;;;26.49;100.00;101780.50;5202860;28;20033;-71
2022/08/20 08:47:40;;;;;;;24.10;8.47;;;;;;;26.11;100.00;101778.47;5203070;28;20033;-71
2022/08/20 08:50:33;;;;;;;23.00;8.05;;;;;;;25.17;100.00;101781.50;5202810;28;20279;-71
2022/08/20 08:53:04;;;;;;;18.33;7.03;;;;;;;25.30;100.00;101780.38;5191310;28;20379;-71
2022/08/20 08:55:35;;;;;;;22.30;8.20;;;;;;;25.55;100.00;101780.94;5202621;28;20076;-71
2022/08/20 08:58:05;;;;;;;23.10;7.75;;;;;;;25.84;100.00;101783.72;5202634;28;20029;-71
2022/08/20 09:00:36;;;;;;;13.00;6.65;;;;;;;26.71;100.00;101774.25;5201531;28;20112;-71
2022/08/20 09:03:11;;;;;;;15.15;7.43;;;;;;;26.50;100.00;101779.44;5202953;28;20110;-71
2022/08/20 09:06:01;;;;;;;17.52;6.38;;;;;;;26.83;100.00;101777.75;5202968;28;20065;-71
2022/08/20 09:08:46;;;;;;;19.55;7.90;;;;;;;26.65;100.00;101791.78;5202224;28;20514;-71
2022/08/20 09:11:18;;;;;;;15.65;6.82;;;;;;;26.64;100.00;101779.09;5202845;28;20463;-71
2022/08/20 09:13:53;;;;;;;15.88;7.05;;;;;;;26.60;100.00;101785.09;5203276;28;20103;-71
2022/08/20 09:16:24;;;;;;;16.20;6.68;;;;;;;26.71;100.00;101782.50;5202282;28;20360;-71
2022/08/20 09:18:55;;;;;;;14.45;5.25;;;;;;;27.63;100.00;101781.88;5201175;28;20391;-71
2022/08/20 09:21:25;;;;;;;18.48;6.50;;;;;;;26.90;100.00;101783.91;5202569;28;20030;-71
2022/08/20 09:23:56;;;;;;;12.77;5.53;;;;;;;27.45;100.00;101779.44;5202974;28;20105;-71
2022/08/20 09:26:26;;;;;;;12.20;4.75;;;;;;;27.66;100.00;101777.75;5202261;28;20035;-71
2022/08/20 09:28:57;;;;;;;13.25;3.92;;;;;;;27.33;100.00;101774.06;5191346;28;20026;-71
2022/08/20 09:31:27;;;;;;;17.15;4.47;;;;;;;27.68;89.74;101781.13;5200406;28;20111;-71
2022/08/20 09:33:58;;;;;;;12.52;4.07;;;;;;;27.99;88.53;101779.53;5202606;28;20030;-71
2022/08/20 09:36:29;;;;;;;16.23;4.68;;;;;;;27.52;97.23;101774.59;5201779;28;20387;-71
2022/08/20 09:39:00;;;;;;;12.85;3.22;;;;;;;27.68;87.12;101768.16;5202551;28;20024;-71
2022/08/20 09:41:31;;;;;;;10.50;3.20;;;;;;;27.75;78.74;101777.06;5202671;28;20382;-71
2022/08/20 09:44:02;;;;;;;7.35;2.53;;;;;;;27.93;79.55;101775.06;5202591;28;20132;-71
2022/08/20 09:46:32;;;;;;;11.30;3.78;;;;;;;27.92;78.58;101774.25;5202203;28;20128;-71
2022/08/20 09:49:03;;;;;;;10.57;2.63;;;;;;;28.19;73.92;101768.72;5202120;28;20361;-70
2022/08/20 09:51:33;;;;;;;6.65;2.83;;;;;;;27.55;76.12;101774.06;5201454;28;20040;-71
2022/08/20 09:54:04;;;;;;;10.45;2.63;;;;;;;26.59;83.79;101771.59;5201919;28;20526;-71
2022/08/20 09:56:35;;;;;;;11.38;3.13;;;;;;;25.68;92.22;101777.06;5201807;28;20025;-71
2022/08/20 09:59:06;;;;;;;10.57;2.80;;;;;;;24.99;86.90;101776.94;5202210;28;20021;-71
2022/08/20 10:01:36;;;;;;;9.88;2.30;;;;;;;24.53;86.35;101766.78;5202494;28;20044;-71
2022/08/20 10:04:07;;;;;;;11.27;2.60;;;;;;;24.44;93.23;101774.53;5201741;28;20022;-71
2022/08/20 10:06:38;;;;;;;12.60;3.08;;;;;;;24.60;84.56;101775.75;5201696;28;20028;-71
2022/08/20 10:09:09;;;;;;;10.60;2.45;;;;;;;24.72;88.83;101764.78;5201978;28;20061;-71
2022/08/20 10:11:40;;;;;;;10.88;3.03;;;;;;;24.58;88.06;101769.66;5204112;28;20027;-71
2022/08/20 10:14:10;;;;;;;11.00;2.67;;;;;;;24.21;91.97;101761.59;5205643;28;20025;-71
2022/08/20 10:16:41;;;;;;;14.93;3.90;;;;;;;23.84;94.03;101762.75;5206156;28;20452;-71
2022/08/20 10:19:11;;;;;;;10.05;2.55;;;;;;;23.74;100.00;101766.06;5205467;28;20590;-71
2022/08/20 10:21:42;;;;;;;11.35;2.55;;;;;;;23.83;100.00;101767.41;5205813;28;20068;-71
2022/08/20 10:24:12;;;;;;;10.52;3.13;;;;;;;23.94;100.00;101766.63;5205648;28;20029;-71
2022/08/20 10:26:43;;;;;;;11.20;2.55;;;;;;;24.02;100.00;101768.19;5206204;28;20025;-71
2022/08/20 10:29:14;;;;;;;13.13;3.20;;;;;;;24.16;96.62;101768.84;5192466;28;20113;-72
2022/08/20 10:31:45;;;;;;;10.73;2.47;;;;;;;24.24;100.00;101772.06;5205751;28;20120;-71
2022/08/20 10:34:15;;;;;;;10.75;2.53;;;;;;;24.70;100.00;101777.88;5197116;28;20104;-71
2022/08/20 10:36:46;;;;;;;12.48;3.20;;;;;;;25.18;92.18;101774.09;5205922;28;20029;-71
2022/08/20 10:39:17;;;;;;;7.18;2.45;;;;;;;25.33;87.20;101771.66;5205627;28;20024;-71
2022/08/20 10:41:47;;;;;;;11.60;3.15;;;;;;;25.55;89.53;101766.34;5205981;28;20112;-71
2022/08/20 10:44:18;;;;;;;8.48;2.35;;;;;;;26.11;85.11;101758.38;5204792;28;20021;-72
2022/08/20 10:46:48;;;;;;;9.52;2.80;;;;;;;26.19;79.27;101771.72;5205660;28;20467;-71
2022/08/20 10:49:19;;;;;;;11.55;2.53;;;;;;;26.05;81.04;101763.75;5191815;28;20052;-72
2022/08/20 10:51:49;;;;;;;7.82;2.33;;;;;;;25.87;78.10;101765.91;5206000;28;20379;-72
2022/08/20 10:54:20;;;;;;;10.63;3.28;;;;;;;25.52;82.72;101773.19;5202816;28;20032;-72
2022/08/20 10:56:50;;;;;;;8.60;2.45;;;;;;;24.90;86.17;101774.78;5205408;28;20033;-72
2022/08/20 10:59:20;;;;;;;8.90;2.17;;;;;;;24.80;90.44;101772.66;5205190;28;20033;-71
2022/08/20 11:01:51;;;;;;;12.80;2.40;;;;;;;24.67;90.21;101770.97;5204240;28;20099;-72
2022/08/20 11:04:21;;;;;;;9.65;2.08;;;;;;;24.66;84.49;101763.00;5204591;28;20112;-71
2022/08/20 11:06:52;;;;;;;9.18;2.60;;;;;;;24.84;81.90;101764.78;5205387;28;20479;-72
2022/08/20 11:09:22;;;;;;;9.95;2.60;;;;;;;24.68;85.93;101766.31;5204935;28;20083;-72
2022/08/20 11:11:53;;;;;;;9.23;2.58;;;;;;;24.45;85.94;101757.03;5205120;28;20606;-71
2022/08/20 11:14:23;;;;;;;13.85;2.42;;;;;;;24.31;87.19;101762.94;5204611;28;20022;-72
2022/08/20 11:16:54;;;;;;;12.05;2.28;;;;;;;24.46;94.89;101755.94;5200669;28;20050;-72
2022/08/20 11:19:25;;;;;;;9.05;2.13;;;;;;;24.96;86.35;101763.72;5195942;28;20025;-72
2022/08/20 11:21:55;;;;;;;9.40;2.40;;;;;;;25.13;81.53;101763.00;5204707;28;20079;-72
2022/08/20 11:24:26;;;;;;;11.93;2.42;;;;;;;24.95;82.35;101763.94;5204435;28;20567;-72
2022/08/20 11:26:56;;;;;;;9.82;2.60;;;;;;;24.74;81.04;101766.19;5205032;28;20029;-72
2022/08/20 11:29:27;;;;;;;9.20;2.20;;;;;;;24.44;77.35;101760.81;5186484;28;20033;-72
2022/08/20 11:31:57;;;;;;;7.82;2.15;;;;;;;24.24;80.33;101760.25;5204948;28;20065;-72
2022/08/20 11:34:28;;;;;;;7.10;2.28;;;;;;;24.09;73.34;101768.09;5203883;28;20041;-72
2022/08/20 11:36:58;;;;;;;10.27;2.53;;;;;;;23.72;77.57;101766.31;5204962;28;20029;-72
2022/08/20 11:39:29;;;;;;;10.02;2.55;;;;;;;23.51;80.98;101762.13;5204561;28;20321;-72